createdAt,value
2019-04-16T00:00:29.455Z,84.18
2019-04-16T00:02:58.091Z,85.12
2019-04-16T00:05:34.056Z,89.01
2019-04-16T00:08:27.254Z,89.79
2019-04-16T00:11:16.213Z,85.66
2019-04-16T00:14:13.146Z,90.46
2019-04-16T00:16:44.632Z,87.34
2019-04-16T00:19:12.075Z,88.89
2019-04-16T00:22:02.759Z,83.27
2019-04-16T00:24:34.361Z,84.97
2019-04-16T00:27:02.977Z,82.20
2019-04-16T00:29:33.024Z,81.35
2019-04-16T00:32:07.882Z,84.04
2019-04-16T00:34:34.662Z,89.54
2019-04-16T00:37:03.315Z,82.28
2019-04-16T00:39:31.881Z,84.01
2019-04-16T00:42:00.379Z,90.63
2019-04-16T00:44:29.112Z,84.90
2019-04-16T00:46:57.605Z,86.27
2019-04-16T00:49:27.106Z,84.48
2019-04-16T00:51:55.988Z,82.98
2019-04-16T00:54:24.632Z,85.03
2019-04-16T00:56:53.170Z,88.51
2019-04-16T00:59:24.278Z,81.74
2019-04-16T01:01:52.197Z,82.80
2019-04-16T01:04:20.973Z,83.43
2019-04-16T01:06:49.587Z,82.90
2019-04-16T01:09:18.403Z,83.23
2019-04-16T01:11:49.040Z,82.28
2019-04-16T01:14:17.424Z,86.32
2019-04-16T01:16:45.977Z,86.81
2019-04-16T01:19:14.401Z,83.20
2019-04-16T01:21:44.797Z,82.99
2019-04-16T01:24:13.555Z,84.24
2019-04-16T01:26:42.058Z,84.68
2019-04-16T01:29:11.963Z,87.33
2019-04-16T01:31:58.967Z,83.59
2019-04-16T01:34:49.461Z,82.75
2019-04-16T01:37:49.689Z,89.02
2019-04-16T01:40:23.383Z,84.22
2019-04-16T01:42:54.426Z,90.56
2019-04-16T01:45:22.289Z,83.01
2019-04-16T01:47:50.880Z,83.99
2019-04-16T01:50:19.503Z,86.01
2019-04-16T01:52:50.293Z,88.97
2019-04-16T01:55:18.562Z,83.79
2019-04-16T01:57:47.263Z,84.66
2019-04-16T02:00:15.808Z,85.18
2019-04-16T02:02:46.405Z,84.86
2019-04-16T02:05:14.998Z,82.91
2019-04-16T02:07:43.590Z,84.95
2019-04-16T02:10:12.202Z,88.86
2019-04-16T02:12:43.867Z,89.33
2019-04-16T02:15:12.411Z,89.19
2019-04-16T02:17:41.297Z,90.17
2019-04-16T02:20:09.821Z,92.01
2019-04-16T02:22:38.353Z,91.20
2019-04-16T02:25:07.104Z,91.90
2019-04-16T02:27:35.626Z,90.91
2019-04-16T02:30:05.691Z,91.17
2019-04-16T02:32:34.559Z,92.83
2019-04-16T02:35:03.367Z,91.73
2019-04-16T02:37:35.437Z,90.34
2019-04-16T02:40:03.005Z,90.96
2019-04-16T02:42:32.189Z,90.65
2019-04-16T02:45:01.045Z,91.70
2019-04-16T02:47:29.960Z,92.43
2019-04-16T02:49:59.768Z,91.96
2019-04-16T02:52:51.101Z,90.58
2019-04-16T02:55:43.866Z,94.90
2019-04-16T02:58:20.212Z,90.61
2019-04-16T03:01:06.947Z,89.64
2019-04-16T03:03:40.377Z,88.84
2019-04-16T03:06:08.888Z,90.71
2019-04-16T03:08:37.387Z,92.03
2019-04-16T03:11:06.159Z,90.46
2019-04-16T03:13:34.742Z,89.72
2019-04-16T03:16:37.687Z,91.01
2019-04-16T03:19:08.662Z,91.97
2019-04-16T03:21:37.064Z,89.55
2019-04-16T03:24:09.058Z,90.79
2019-04-16T03:26:36.158Z,93.59
2019-04-16T03:29:04.907Z,89.63
2019-04-16T03:31:33.626Z,91.54
2019-04-16T03:34:02.264Z,88.41
2019-04-16T03:36:30.874Z,89.07
2019-04-16T03:38:59.585Z,88.68
2019-04-16T03:41:28.210Z,90.11
2019-04-16T03:43:56.702Z,91.32
2019-04-16T03:46:25.427Z,91.58
2019-04-16T03:48:56.177Z,94.10
2019-04-16T03:51:24.929Z,93.35
2019-04-16T03:53:53.417Z,90.88
2019-04-16T03:56:22.026Z,90.58
2019-04-16T03:58:50.705Z,93.00
2019-04-16T04:01:19.243Z,89.74
2019-04-16T04:03:47.971Z,91.60
2019-04-16T04:06:16.668Z,92.55
2019-04-16T04:08:47.924Z,92.80
2019-04-16T04:11:15.605Z,93.44
2019-04-16T04:13:44.018Z,94.26
2019-04-16T04:16:12.618Z,94.32
2019-04-16T04:18:43.274Z,95.54
2019-04-16T04:21:11.673Z,96.34
2019-04-16T04:23:40.309Z,97.09
2019-04-16T04:26:10.182Z,94.65
2019-04-16T04:28:39.063Z,94.32
2019-04-16T04:31:07.663Z,93.74
2019-04-16T04:33:40.947Z,94.25
2019-04-16T04:36:08.771Z,91.50
2019-04-16T04:38:38.462Z,88.50
2019-04-16T04:41:08.022Z,88.63
2019-04-16T04:43:36.978Z,90.89
2019-04-16T04:46:05.587Z,91.45
2019-04-16T04:48:34.189Z,87.23
2019-04-16T04:51:06.945Z,90.67
2019-04-16T04:53:33.157Z,89.91
2019-04-16T04:56:01.682Z,88.93
2019-04-16T04:58:33.784Z,90.87
2019-04-16T05:01:00.608Z,88.36
2019-04-16T05:03:51.376Z,88.66
2019-04-16T05:06:27.839Z,88.86
2019-04-16T05:08:57.622Z,88.65
2019-04-16T05:11:26.977Z,87.16
2019-04-16T05:13:56.465Z,88.87
2019-04-16T05:16:25.662Z,89.91
2019-04-16T05:18:54.506Z,90.78
2019-04-16T05:21:23.065Z,91.15
2019-04-16T05:23:57.215Z,89.91
2019-04-16T05:26:22.019Z,90.37
2019-04-16T05:28:50.634Z,89.11
2019-04-16T05:31:24.303Z,88.71
2019-04-16T05:33:49.514Z,84.86
2019-04-16T05:36:21.035Z,83.57
2019-04-16T05:38:48.772Z,83.19
2019-04-16T05:41:21.201Z,79.07
2019-04-16T05:43:47.834Z,79.52
2019-04-16T05:46:16.435Z,85.26
2019-04-16T05:48:45.149Z,80.56
2019-04-16T05:51:13.802Z,74.29
2019-04-16T05:53:46.174Z,75.08
2019-04-16T05:56:23.949Z,76.17
2019-04-16T05:58:51.936Z,72.71
2019-04-16T06:01:29.653Z,71.06
2019-04-16T06:03:58.065Z,75.54
2019-04-16T06:06:28.760Z,71.07
2019-04-16T06:08:57.294Z,67.35
2019-04-16T06:11:29.269Z,70.18
2019-04-16T06:14:07.678Z,65.55
2019-04-16T06:17:01.197Z,68.28
2019-04-16T06:20:04.500Z,66.60
2019-04-16T06:22:52.654Z,68.32
2019-04-16T06:25:41.010Z,63.63
2019-04-16T06:28:15.089Z,65.41
2019-04-16T06:30:52.019Z,67.38
2019-04-16T06:33:31.121Z,63.94
2019-04-16T06:36:24.388Z,63.30
2019-04-16T06:39:12.597Z,66.45
2019-04-16T06:42:09.728Z,68.31
2019-04-16T06:44:58.048Z,60.28
2019-04-16T06:47:45.822Z,62.42
2019-04-16T06:50:40.574Z,77.14
2019-04-16T06:53:30.725Z,72.28
2019-04-16T06:56:27.605Z,74.88
2019-04-16T06:59:17.915Z,65.71
2019-04-16T07:02:17.991Z,58.00
2019-04-16T07:05:08.738Z,60.23
2019-04-16T07:08:09.188Z,69.70
2019-04-16T07:10:47.417Z,59.16
2019-04-16T07:13:15.944Z,69.71
2019-04-16T07:15:44.603Z,75.71
2019-04-16T07:18:13.231Z,63.51
2019-04-16T07:20:42.259Z,77.57
2019-04-16T07:23:12.434Z,62.97
2019-04-16T07:25:43.115Z,76.06
2019-04-16T07:28:26.637Z,61.97
2019-04-16T07:31:13.246Z,64.19
2019-04-16T07:34:00.074Z,78.03
2019-04-16T07:36:46.468Z,61.75
2019-04-16T07:39:36.937Z,63.89
2019-04-16T07:42:12.613Z,61.32
2019-04-16T07:45:10.810Z,67.08
2019-04-16T07:47:51.681Z,62.61
2019-04-16T07:50:54.874Z,65.90
2019-04-16T07:53:49.050Z,64.43
2019-04-16T07:56:23.144Z,65.49
2019-04-16T07:58:52.276Z,63.54
2019-04-16T08:01:20.785Z,70.88
2019-04-16T08:03:49.302Z,77.96
2019-04-16T08:06:17.941Z,69.12
2019-04-16T08:08:46.498Z,61.42
2019-04-16T08:11:15.083Z,65.03
2019-04-16T08:13:44.077Z,61.67
2019-04-16T08:16:12.711Z,63.52
2019-04-16T08:18:49.070Z,70.00
2019-04-16T08:21:17.692Z,59.74
2019-04-16T08:23:52.906Z,59.40
2019-04-16T08:26:20.249Z,67.23
2019-04-16T08:28:48.752Z,62.46
2019-04-16T08:31:23.362Z,60.77
2019-04-16T08:33:52.091Z,60.63
2019-04-16T08:36:20.620Z,63.65
2019-04-16T08:38:49.323Z,64.67
2019-04-16T08:41:21.334Z,60.27
2019-04-16T08:43:48.444Z,59.50
2019-04-16T08:46:17.024Z,60.63
2019-04-16T08:48:48.879Z,62.81
2019-04-16T08:51:29.330Z,60.39
2019-04-16T08:53:47.291Z,60.08
2019-04-16T08:56:15.897Z,71.59
2019-04-16T08:58:44.739Z,65.11
2019-04-16T09:01:23.287Z,60.21
2019-04-16T09:03:49.026Z,63.20
2019-04-16T09:06:17.648Z,60.42
2019-04-16T09:09:11.188Z,63.09
2019-04-16T09:11:29.159Z,62.86
2019-04-16T09:14:00.507Z,61.31
2019-04-16T09:16:30.284Z,60.95
2019-04-16T09:19:07.869Z,60.57
2019-04-16T09:21:36.393Z,60.77
2019-04-16T09:24:25.592Z,64.04
2019-04-16T09:27:19.925Z,61.45
2019-04-16T09:30:17.780Z,63.12
2019-04-16T09:32:49.236Z,67.04
2019-04-16T09:35:29.725Z,62.20
2019-04-16T09:38:18.076Z,64.03
2019-04-16T09:41:21.861Z,65.93
2019-04-16T09:43:56.852Z,68.12
2019-04-16T09:46:48.755Z,63.97
2019-04-16T09:48:54.767Z,64.37
2019-04-16T09:51:25.375Z,61.61
2019-04-16T09:53:53.868Z,63.36
2019-04-16T09:56:31.813Z,59.30
2019-04-16T09:59:03.641Z,62.83
2019-04-16T10:01:38.457Z,56.50
2019-04-16T10:04:08.384Z,56.62
2019-04-16T10:06:37.006Z,55.53
2019-04-16T10:09:06.021Z,53.80
2019-04-16T10:11:35.872Z,53.07
2019-04-16T10:14:05.381Z,55.53
2019-04-16T10:16:34.072Z,54.60
2019-04-16T10:19:07.639Z,57.99
2019-04-16T10:21:33.054Z,55.02
2019-04-16T10:24:19.721Z,58.32
2019-04-16T10:26:51.146Z,55.61
2019-04-16T10:29:19.871Z,54.43
2019-04-16T10:31:48.580Z,52.09
2019-04-16T10:34:17.244Z,58.07
2019-04-16T10:36:45.981Z,54.16
2019-04-16T10:39:46.354Z,52.81
2019-04-16T10:42:46.866Z,52.95
2019-04-16T10:45:36.093Z,53.32
2019-04-16T10:48:42.448Z,51.70
2019-04-16T10:51:20.166Z,52.69
2019-04-16T10:54:06.992Z,52.64
2019-04-16T10:56:56.792Z,51.06
2019-04-16T10:59:58.877Z,52.35
2019-04-16T11:02:35.118Z,51.59
2019-04-16T11:05:20.064Z,50.59
2019-04-16T11:07:49.360Z,52.23
2019-04-16T11:10:18.165Z,51.68
2019-04-16T11:12:47.005Z,53.90
2019-04-16T11:15:19.869Z,62.23
2019-04-16T11:17:48.761Z,61.59
2019-04-16T11:20:17.759Z,57.56
2019-04-16T11:22:46.442Z,55.65
2019-04-16T11:25:16.248Z,62.71
2019-04-16T11:27:44.859Z,57.58
2019-04-16T11:30:30.232Z,57.64
2019-04-16T11:32:59.436Z,62.87
2019-04-16T11:35:28.170Z,56.55
2019-04-16T11:37:56.816Z,58.58
2019-04-16T11:40:25.514Z,59.39
2019-04-16T11:42:54.275Z,56.55
2019-04-16T11:45:23.513Z,65.44
2019-04-16T11:47:52.028Z,57.11
2019-04-16T11:50:20.719Z,57.00
2019-04-16T11:52:49.373Z,60.21
2019-04-16T11:55:18.011Z,59.32
2019-04-16T11:57:46.991Z,60.21
2019-04-16T12:00:21.270Z,60.04
2019-04-16T12:03:07.054Z,63.43
2019-04-16T12:05:57.930Z,58.71
2019-04-16T12:08:35.203Z,61.55
2019-04-16T12:11:22.431Z,61.10
2019-04-16T12:14:10.733Z,56.74
2019-04-16T12:16:47.929Z,56.35
2019-04-16T12:19:47.977Z,59.06
2019-04-16T12:22:26.824Z,57.83
2019-04-16T12:25:29.281Z,57.17
2019-04-16T12:28:28.859Z,57.47
2019-04-16T12:31:05.904Z,70.95
2019-04-16T12:33:56.375Z,64.57
2019-04-16T12:36:56.821Z,63.64
2019-04-16T12:39:48.029Z,57.70
2019-04-16T12:42:41.233Z,57.73
2019-04-16T12:45:32.026Z,61.54
2019-04-16T12:48:11.426Z,55.34
2019-04-16T12:51:05.464Z,57.39
2019-04-16T12:53:54.232Z,57.38
2019-04-16T12:56:45.335Z,59.01
2019-04-16T12:59:32.260Z,55.52
2019-04-16T13:02:19.171Z,61.03
2019-04-16T13:05:22.060Z,55.14
2019-04-16T13:08:08.902Z,60.00
2019-04-16T13:11:08.142Z,56.70
2019-04-16T13:13:55.841Z,59.83
2019-04-16T13:16:40.350Z,66.93
2019-04-16T13:19:27.762Z,60.51
2019-04-16T13:21:59.890Z,58.83
2019-04-16T13:24:40.162Z,60.82
2019-04-16T13:27:21.398Z,55.48
2019-04-16T13:29:50.176Z,58.04
2019-04-16T13:32:19.242Z,57.87
2019-04-16T13:34:47.830Z,57.13
2019-04-16T13:37:16.648Z,55.77
2019-04-16T13:40:10.958Z,56.13
2019-04-16T13:42:39.800Z,50.08
2019-04-16T13:45:26.982Z,62.86
2019-04-16T13:47:56.192Z,54.68
2019-04-16T13:50:28.931Z,52.62
2019-04-16T13:53:03.357Z,63.63
2019-04-16T13:55:54.206Z,54.84
2019-04-16T13:58:35.509Z,53.01
2019-04-16T14:01:25.733Z,53.80
2019-04-16T14:03:56.372Z,52.67
2019-04-16T14:06:24.906Z,51.88
2019-04-16T14:08:53.731Z,52.66
2019-04-16T14:11:22.455Z,55.35
2019-04-16T14:13:50.968Z,50.69
2019-04-16T14:16:19.494Z,48.40
2019-04-16T14:18:48.331Z,47.29
2019-04-16T14:21:16.896Z,48.35
2019-04-16T14:23:45.589Z,47.82
2019-04-16T14:26:14.427Z,47.84
2019-04-16T14:28:51.892Z,47.44
2019-04-16T14:31:16.932Z,48.75
2019-04-16T14:34:06.520Z,47.82
2019-04-16T14:36:35.158Z,48.21
2019-04-16T14:39:17.383Z,47.63
2019-04-16T14:41:50.130Z,48.07
2019-04-16T14:44:17.864Z,47.09
2019-04-16T14:46:46.873Z,49.25
2019-04-16T14:49:18.317Z,49.89
2019-04-16T14:51:45.999Z,47.06
2019-04-16T14:54:24.342Z,47.84
2019-04-16T14:56:55.238Z,49.91
2019-04-16T14:59:43.592Z,46.86
2019-04-16T15:02:32.003Z,47.16
2019-04-16T15:05:08.881Z,47.69
2019-04-16T15:07:44.085Z,47.82
2019-04-16T15:10:25.730Z,47.42
2019-04-16T15:13:29.029Z,47.62
2019-04-16T15:16:21.209Z,46.48
2019-04-16T15:19:05.334Z,49.82
2019-04-16T15:21:53.500Z,50.25
2019-04-16T15:24:32.767Z,50.51
2019-04-16T15:27:19.739Z,55.65
2019-04-16T15:29:56.486Z,57.79
2019-04-16T15:32:42.250Z,65.55
2019-04-16T15:35:15.044Z,60.78
2019-04-16T15:37:50.547Z,58.66
2019-04-16T15:40:31.005Z,58.63
2019-04-16T15:43:19.735Z,56.86
2019-04-16T15:46:25.031Z,61.17
2019-04-16T15:48:55.755Z,63.69
2019-04-16T15:51:56.249Z,66.62
2019-04-16T15:54:39.168Z,69.31
2019-04-16T15:57:25.904Z,67.87
2019-04-16T16:00:08.301Z,65.99
2019-04-16T16:03:02.324Z,56.13
2019-04-16T16:05:34.578Z,63.90
2019-04-16T16:08:13.389Z,58.18
2019-04-16T16:10:47.296Z,65.34
2019-04-16T16:13:15.973Z,58.80
2019-04-16T16:15:44.638Z,70.75
2019-04-16T16:18:13.418Z,67.28
2019-04-16T16:20:42.003Z,59.54
2019-04-16T16:23:10.723Z,61.60
2019-04-16T16:25:41.519Z,69.44
2019-04-16T16:28:09.804Z,61.37
2019-04-16T16:30:38.775Z,63.39
2019-04-16T16:33:07.495Z,62.36
2019-04-16T16:35:36.293Z,67.32
2019-04-16T16:38:04.917Z,74.29
2019-04-16T16:40:33.769Z,68.36
2019-04-16T16:43:07.045Z,68.24
2019-04-16T16:45:53.166Z,71.82
2019-04-16T16:48:23.132Z,73.99
2019-04-16T16:50:51.971Z,74.69
2019-04-16T16:53:26.338Z,72.85
2019-04-16T16:55:58.730Z,65.41
2019-04-16T16:58:39.612Z,68.82
2019-04-16T17:01:33.361Z,70.86
2019-04-16T17:04:08.593Z,72.73
2019-04-16T17:06:37.098Z,72.40
2019-04-16T17:09:08.313Z,75.77
2019-04-16T17:11:36.949Z,79.02
2019-04-16T17:14:05.588Z,79.49
2019-04-16T17:16:34.391Z,82.12
2019-04-16T17:19:02.987Z,83.93
2019-04-16T17:21:31.714Z,84.79
2019-04-16T17:24:00.547Z,84.32
2019-04-16T17:26:29.653Z,83.64
2019-04-16T17:28:58.214Z,81.87
2019-04-16T17:31:27.074Z,81.76
2019-04-16T17:33:55.813Z,80.12
2019-04-16T17:36:24.443Z,80.77
2019-04-16T17:38:53.867Z,81.54
2019-04-16T17:41:26.221Z,80.62
2019-04-16T17:44:19.968Z,82.26
2019-04-16T17:47:03.570Z,80.93
2019-04-16T17:49:52.851Z,82.59
2019-04-16T17:52:47.864Z,71.65
2019-04-16T17:55:36.432Z,76.82
2019-04-16T17:58:10.490Z,79.45
2019-04-16T18:01:04.265Z,79.86
2019-04-16T18:03:51.364Z,80.42
2019-04-16T18:06:35.144Z,83.53
2019-04-16T18:09:23.771Z,81.70
2019-04-16T18:12:08.764Z,100.00
2019-04-16T18:14:55.271Z,100.00
2019-04-16T18:17:46.077Z,100.00
2019-04-16T18:20:30.613Z,100.00
2019-04-16T18:23:14.190Z,100.00
2019-04-16T18:26:00.856Z,100.00
2019-04-16T18:28:34.153Z,100.00
2019-04-16T18:31:25.159Z,100.00
2019-04-16T18:34:10.078Z,100.00
2019-04-16T18:36:44.942Z,100.00
2019-04-16T18:39:37.177Z,100.00
2019-04-16T18:42:13.742Z,100.00
2019-04-16T18:44:59.949Z,100.00
2019-04-16T18:48:01.337Z,100.00
2019-04-16T18:50:23.618Z,100.00
2019-04-16T18:52:52.185Z,100.00
2019-04-16T18:55:20.797Z,100.00
2019-04-16T18:57:49.510Z,100.00
2019-04-16T19:00:46.864Z,100.00
2019-04-16T19:03:18.170Z,100.00
2019-04-16T19:05:46.934Z,100.00
2019-04-16T19:08:15.533Z,100.00
2019-04-16T19:10:44.767Z,100.00
2019-04-16T19:13:14.155Z,100.00
2019-04-16T19:15:42.779Z,100.00
2019-04-16T19:18:19.538Z,100.00
2019-04-16T19:20:42.005Z,100.00
2019-04-16T19:23:10.644Z,100.00
2019-04-16T19:25:39.248Z,100.00
2019-04-16T19:28:07.835Z,100.00
2019-04-16T19:30:36.651Z,100.00
2019-04-16T19:33:05.574Z,100.00
2019-04-16T19:35:34.384Z,100.00
2019-04-16T19:38:06.477Z,100.00
2019-04-16T19:40:33.785Z,100.00
2019-04-16T19:43:03.497Z,100.00
2019-04-16T19:45:32.202Z,100.00
2019-04-16T19:48:02.135Z,100.00
2019-04-16T19:50:36.088Z,100.00
2019-04-16T19:53:02.040Z,100.00
2019-04-16T19:55:31.241Z,100.00
2019-04-16T19:58:00.054Z,100.00
2019-04-16T20:00:28.746Z,100.00
2019-04-16T20:02:57.512Z,100.00
2019-04-16T20:05:28.756Z,100.00
2019-04-16T20:07:57.592Z,100.00
2019-04-16T20:10:26.228Z,100.00
2019-04-16T20:12:57.527Z,100.00
2019-04-16T20:15:25.774Z,100.00
2019-04-16T20:17:54.488Z,100.00
2019-04-16T20:20:23.093Z,100.00
2019-04-16T20:22:52.125Z,100.00
2019-04-16T20:25:20.816Z,100.00
2019-04-16T20:27:49.561Z,100.00
2019-04-16T20:30:23.034Z,100.00
2019-04-16T20:32:48.742Z,100.00
2019-04-16T20:35:18.789Z,100.00
2019-04-16T20:37:50.456Z,100.00
2019-04-16T20:40:18.743Z,100.00
2019-04-16T20:42:47.704Z,100.00
2019-04-16T20:45:16.310Z,100.00
2019-04-16T20:47:45.048Z,100.00
2019-04-16T20:50:13.654Z,100.00
2019-04-16T20:52:42.232Z,100.00
2019-04-16T20:55:15.690Z,100.00
2019-04-16T20:57:41.758Z,100.00
2019-04-16T21:00:12.649Z,100.00
2019-04-16T21:02:41.129Z,100.00
2019-04-16T21:05:21.933Z,100.00
2019-04-16T21:07:43.900Z,100.00
2019-04-16T21:10:11.783Z,100.00
2019-04-16T21:12:45.030Z,100.00
2019-04-16T21:15:11.131Z,100.00
2019-04-16T21:17:39.851Z,100.00
2019-04-16T21:20:08.606Z,100.00
2019-04-16T21:22:37.209Z,100.00
2019-04-16T21:25:06.015Z,100.00
2019-04-16T21:27:43.562Z,100.00
2019-04-16T21:30:13.427Z,100.00
2019-04-16T21:33:05.167Z,100.00
2019-04-16T21:35:36.676Z,100.00
2019-04-16T21:38:16.984Z,100.00
2019-04-16T21:40:45.612Z,100.00
2019-04-16T21:43:14.202Z,100.00
2019-04-16T21:45:45.606Z,100.00
2019-04-16T21:48:13.208Z,100.00
2019-04-16T21:50:44.518Z,100.00
2019-04-16T21:53:12.464Z,100.00
2019-04-16T21:55:41.078Z,100.00
2019-04-16T21:58:09.662Z,100.00
2019-04-16T22:01:06.652Z,100.00
2019-04-16T22:03:41.761Z,100.00
2019-04-16T22:06:06.259Z,100.00
2019-04-16T22:08:34.879Z,100.00
2019-04-16T22:11:03.402Z,100.00
2019-04-16T22:13:31.984Z,100.00
2019-04-16T22:16:00.474Z,100.00
2019-04-16T22:18:28.956Z,100.00
2019-04-16T22:20:57.738Z,100.00
2019-04-16T22:23:26.278Z,100.00
2019-04-16T22:25:57.056Z,100.00
2019-04-16T22:28:25.326Z,100.00
2019-04-16T22:30:53.930Z,100.00
2019-04-16T22:33:22.526Z,100.00
2019-04-16T22:35:51.035Z,100.00
2019-04-16T22:38:19.830Z,100.00
2019-04-16T22:40:56.961Z,100.00
2019-04-16T22:43:54.246Z,100.00
2019-04-16T22:46:43.865Z,100.00
2019-04-16T22:49:12.417Z,100.00
2019-04-16T22:51:43.237Z,100.00
2019-04-16T22:54:11.458Z,100.00
2019-04-16T22:57:05.299Z,100.00
2019-04-16T22:59:39.044Z,100.00
2019-04-16T23:02:09.965Z,100.00
2019-04-16T23:04:38.352Z,100.00
2019-04-16T23:07:08.335Z,100.00
2019-04-16T23:09:37.306Z,100.00
2019-04-16T23:12:05.933Z,100.00
2019-04-16T23:14:35.597Z,100.00
2019-04-16T23:17:04.348Z,100.00
2019-04-16T23:19:32.845Z,100.00
2019-04-16T23:22:01.462Z,100.00
2019-04-16T23:24:30.053Z,100.00
2019-04-16T23:27:04.518Z,100.00
2019-04-16T23:29:29.149Z,100.00
2019-04-16T23:31:57.741Z,100.00
2019-04-16T23:34:26.247Z,100.00
2019-04-16T23:36:54.839Z,100.00
2019-04-16T23:39:23.526Z,100.00
2019-04-16T23:41:52.018Z,100.00
2019-04-16T23:44:42.627Z,100.00
2019-04-16T23:47:36.496Z,100.00
2019-04-16T23:50:44.337Z,100.00
2019-04-16T23:53:26.856Z,100.00
2019-04-16T23:56:08.065Z,100.00
2019-04-16T23:59:02.659Z,100.00
